createdAt,value
2019-03-24T00:03:59.893Z,36.00
2019-03-24T00:06:28.002Z,36.47
2019-03-24T00:09:10.021Z,36.43
2019-03-24T00:11:51.132Z,38.00
2019-03-24T00:14:33.064Z,34.93
2019-03-24T00:17:15.161Z,34.90
2019-03-24T00:19:57.093Z,34.73
2019-03-24T00:22:39.116Z,35.20
2019-03-24T00:25:20.924Z,34.47
2019-03-24T00:28:02.975Z,34.87
2019-03-24T00:30:45.037Z,36.07
2019-03-24T00:33:26.102Z,35.90
2019-03-24T00:36:07.212Z,35.60
2019-03-24T00:38:48.960Z,35.80
2019-03-24T00:41:31.032Z,34.80
2019-03-24T00:44:12.841Z,36.30
2019-03-24T00:46:54.862Z,35.13
2019-03-24T00:49:36.734Z,36.13
2019-03-24T00:52:18.696Z,34.40
2019-03-24T00:55:00.672Z,34.83
2019-03-24T00:57:42.573Z,33.80
2019-03-24T01:00:24.499Z,34.67
2019-03-24T01:03:06.404Z,34.60
2019-03-24T01:05:48.408Z,34.93
2019-03-24T01:08:30.263Z,34.43
2019-03-24T01:11:12.100Z,34.10
2019-03-24T01:13:53.124Z,34.03
2019-03-24T01:16:34.849Z,33.87
2019-03-24T01:19:16.202Z,34.57
2019-03-24T01:21:57.509Z,34.97
2019-03-24T01:24:39.559Z,35.37
2019-03-24T01:27:21.472Z,32.40
2019-03-24T01:30:03.590Z,36.17
2019-03-24T01:32:45.228Z,35.27
2019-03-24T01:35:27.109Z,33.27
2019-03-24T01:37:55.203Z,36.00
2019-03-24T01:40:36.736Z,34.93
2019-03-24T01:43:17.711Z,36.30
2019-03-24T01:45:59.444Z,35.00
2019-03-24T01:48:41.339Z,36.87
2019-03-24T01:51:23.323Z,34.63
2019-03-24T01:54:05.407Z,35.53
2019-03-24T01:56:47.539Z,36.47
2019-03-24T01:59:29.361Z,36.10
2019-03-24T02:02:12.116Z,36.37
2019-03-24T02:04:54.296Z,38.17
2019-03-24T02:07:36.117Z,34.60
2019-03-24T02:10:17.281Z,33.93
2019-03-24T02:12:59.118Z,36.80
2019-03-24T02:15:41.131Z,35.20
2019-03-24T02:18:23.156Z,36.97
2019-03-24T02:21:05.040Z,36.87
2019-03-24T02:23:46.869Z,37.20
2019-03-24T02:26:28.829Z,37.63
2019-03-24T02:29:10.459Z,36.23
2019-03-24T02:31:52.494Z,36.27
2019-03-24T02:34:34.513Z,40.30
2019-03-24T02:37:16.664Z,36.37
2019-03-24T02:39:58.832Z,36.60
2019-03-24T02:42:39.837Z,37.27
2019-03-24T02:45:27.493Z,37.80
2019-03-24T02:48:09.583Z,36.63
2019-03-24T02:50:51.500Z,36.80
2019-03-24T02:53:33.391Z,37.13
2019-03-24T02:56:15.374Z,37.60
2019-03-24T02:58:57.217Z,36.93
2019-03-24T03:01:39.180Z,39.30
2019-03-24T03:04:21.133Z,38.57
2019-03-24T03:07:03.080Z,41.03
2019-03-24T03:09:44.928Z,40.30
2019-03-24T03:12:26.821Z,39.10
2019-03-24T03:15:08.754Z,39.10
2019-03-24T03:17:50.837Z,36.80
2019-03-24T03:20:32.732Z,38.47
2019-03-24T03:23:13.881Z,39.50
2019-03-24T03:25:55.089Z,40.57
2019-03-24T03:28:38.094Z,40.17
2019-03-24T03:31:19.810Z,40.60
2019-03-24T03:34:01.777Z,38.83
2019-03-24T03:36:29.901Z,40.37
2019-03-24T03:39:11.779Z,38.93
2019-03-24T03:41:53.709Z,42.67
2019-03-24T03:44:35.746Z,40.20
2019-03-24T03:47:17.513Z,43.37
2019-03-24T03:49:59.575Z,42.03
2019-03-24T03:52:41.673Z,41.70
2019-03-24T03:55:23.499Z,40.90
2019-03-24T03:58:05.499Z,42.43
2019-03-24T04:00:47.477Z,41.77
2019-03-24T04:03:29.536Z,41.63
2019-03-24T04:06:11.511Z,44.23
2019-03-24T04:08:53.440Z,45.83
2019-03-24T04:11:35.205Z,44.23
2019-03-24T04:14:17.269Z,42.93
2019-03-24T04:17:06.792Z,40.63
2019-03-24T04:19:42.236Z,43.93
2019-03-24T04:22:10.393Z,42.70
2019-03-24T04:24:52.092Z,43.90
2019-03-24T04:27:33.910Z,43.00
2019-03-24T04:30:17.799Z,41.87
2019-03-24T04:32:59.825Z,42.67
2019-03-24T04:35:41.850Z,41.30
2019-03-24T04:38:22.769Z,43.17
2019-03-24T04:41:04.829Z,44.00
2019-03-24T04:43:46.738Z,41.13
2019-03-24T04:46:28.759Z,43.83
2019-03-24T04:49:10.663Z,42.40
2019-03-24T04:51:52.431Z,44.40
2019-03-24T04:54:34.378Z,42.40
2019-03-24T04:57:35.255Z,42.83
2019-03-24T05:00:17.204Z,43.20
2019-03-24T05:02:59.101Z,45.83
2019-03-24T05:05:41.152Z,42.90
2019-03-24T05:08:23.076Z,45.70
2019-03-24T05:11:05.057Z,44.80
2019-03-24T05:13:46.760Z,40.97
2019-03-24T05:16:28.888Z,43.10
2019-03-24T05:19:10.926Z,43.20
2019-03-24T05:21:52.756Z,42.53
2019-03-24T05:24:34.013Z,43.07
2019-03-24T05:27:15.971Z,41.47
2019-03-24T05:29:58.061Z,41.30
2019-03-24T05:32:40.053Z,41.40
2019-03-24T05:35:21.894Z,42.23
2019-03-24T05:38:05.949Z,43.87
2019-03-24T05:40:47.865Z,40.40
2019-03-24T05:43:29.751Z,45.47
2019-03-24T05:46:11.075Z,42.20
2019-03-24T05:48:54.114Z,44.43
2019-03-24T05:51:35.986Z,43.43
2019-03-24T05:54:17.811Z,41.17
2019-03-24T05:56:59.649Z,42.57
2019-03-24T05:59:41.558Z,40.83
2019-03-24T06:02:23.510Z,42.30
2019-03-24T06:05:05.534Z,41.47
2019-03-24T06:07:46.695Z,41.50
2019-03-24T06:10:28.517Z,41.57
2019-03-24T06:13:10.435Z,43.23
2019-03-24T06:15:38.605Z,43.80
2019-03-24T06:18:20.243Z,41.30
2019-03-24T06:21:02.155Z,43.23
2019-03-24T06:23:46.019Z,40.20
2019-03-24T06:26:27.192Z,42.40
2019-03-24T06:29:09.179Z,49.07
2019-03-24T06:31:50.386Z,44.00
2019-03-24T06:34:32.211Z,42.20
2019-03-24T06:37:14.369Z,44.50
2019-03-24T06:39:56.296Z,43.60
2019-03-24T06:42:38.144Z,41.30
2019-03-24T06:45:28.271Z,42.20
2019-03-24T06:48:05.027Z,37.30
2019-03-24T06:50:46.828Z,41.03
2019-03-24T06:53:28.800Z,39.60
2019-03-24T06:56:10.972Z,37.93
2019-03-24T06:58:52.823Z,39.73
2019-03-24T07:01:34.642Z,38.53
2019-03-24T07:04:16.843Z,39.53
2019-03-24T07:06:58.473Z,40.47
2019-03-24T07:09:40.523Z,37.20
2019-03-24T07:12:22.446Z,38.17
2019-03-24T07:15:06.276Z,39.73
2019-03-24T07:17:49.128Z,37.73
2019-03-24T07:20:31.085Z,35.97
2019-03-24T07:23:13.239Z,37.03
2019-03-24T07:25:55.008Z,35.57
2019-03-24T07:28:37.284Z,34.63
2019-03-24T07:31:18.856Z,36.83
2019-03-24T07:34:00.932Z,37.30
2019-03-24T07:36:42.774Z,37.03
2019-03-24T07:39:10.896Z,35.83
2019-03-24T07:41:39.007Z,35.37
2019-03-24T07:44:07.120Z,35.97
2019-03-24T07:46:49.203Z,35.30
2019-03-24T07:49:31.193Z,36.67
2019-03-24T07:52:13.276Z,35.50
2019-03-24T07:54:55.095Z,34.47
2019-03-24T07:57:36.919Z,36.30
2019-03-24T08:00:18.984Z,33.73
2019-03-24T08:02:59.921Z,34.67
2019-03-24T08:05:42.084Z,35.20
2019-03-24T08:08:26.031Z,31.57
2019-03-24T08:11:07.849Z,33.53
2019-03-24T08:13:53.964Z,33.73
2019-03-24T08:16:32.576Z,33.23
2019-03-24T08:19:14.426Z,35.00
2019-03-24T08:21:56.228Z,35.80
2019-03-24T08:24:37.991Z,33.47
2019-03-24T08:27:20.076Z,33.30
2019-03-24T08:30:02.041Z,33.90
2019-03-24T08:32:44.048Z,32.77
2019-03-24T08:35:26.153Z,31.30
2019-03-24T08:38:07.980Z,32.03
2019-03-24T08:40:50.040Z,34.97
2019-03-24T08:43:32.044Z,31.70
2019-03-24T08:46:13.971Z,33.73
2019-03-24T08:48:55.942Z,31.70
2019-03-24T08:51:37.164Z,32.03
2019-03-24T08:54:19.183Z,31.47
2019-03-24T08:57:01.033Z,33.43
2019-03-24T08:59:29.211Z,33.33
2019-03-24T09:02:10.844Z,34.27
2019-03-24T09:04:52.747Z,32.83
2019-03-24T09:07:33.813Z,30.93
2019-03-24T09:10:15.752Z,32.10
2019-03-24T09:12:57.701Z,31.10
2019-03-24T09:15:39.741Z,32.87
2019-03-24T09:18:21.616Z,30.67
2019-03-24T09:21:04.455Z,31.37
2019-03-24T09:23:46.195Z,29.57
2019-03-24T09:26:28.159Z,30.23
2019-03-24T09:31:51.224Z,28.70
2019-03-24T09:34:33.073Z,31.10
2019-03-24T09:37:15.146Z,29.40
2019-03-24T09:39:57.056Z,30.40
2019-03-24T09:42:39.151Z,28.93
2019-03-24T09:45:20.900Z,30.00
2019-03-24T09:48:02.958Z,29.50
2019-03-24T09:50:45.143Z,30.17
2019-03-24T09:53:26.848Z,31.00
2019-03-24T09:55:55.039Z,28.17
2019-03-24T09:58:36.706Z,28.00
2019-03-24T10:01:18.700Z,28.93
2019-03-24T10:04:00.565Z,29.47
2019-03-24T10:06:42.623Z,30.03
2019-03-24T10:09:26.831Z,29.93
2019-03-24T10:12:08.892Z,28.27
2019-03-24T10:14:50.968Z,29.30
2019-03-24T10:17:33.164Z,28.27
2019-03-24T10:20:14.607Z,28.70
2019-03-24T10:22:56.176Z,28.33
2019-03-24T10:25:38.259Z,27.50
2019-03-24T10:28:20.244Z,25.27
2019-03-24T10:31:02.174Z,27.33
2019-03-24T10:36:24.843Z,27.10
2019-03-24T10:39:06.773Z,29.50
2019-03-24T10:41:48.804Z,28.83
2019-03-24T10:44:30.884Z,26.90
2019-03-24T10:47:12.559Z,26.43
2019-03-24T10:49:55.711Z,28.33
2019-03-24T10:52:37.791Z,26.77
2019-03-24T10:55:18.767Z,27.57
2019-03-24T10:58:02.896Z,28.77
2019-03-24T11:00:44.595Z,26.97
2019-03-24T11:03:26.643Z,27.37
2019-03-24T11:06:54.808Z,28.50
2019-03-24T11:09:36.745Z,26.87
2019-03-24T11:15:23.780Z,25.37
2019-03-24T11:18:05.755Z,24.20
2019-03-24T11:20:47.495Z,26.60
2019-03-24T11:23:29.547Z,25.03
2019-03-24T11:26:11.590Z,25.00
2019-03-24T11:28:53.740Z,23.90
2019-03-24T11:31:35.652Z,24.27
2019-03-24T11:34:17.725Z,23.10
2019-03-24T11:36:59.864Z,24.27
2019-03-24T11:39:41.989Z,24.23
2019-03-24T11:42:23.932Z,23.90
2019-03-24T11:45:05.568Z,24.30
2019-03-24T11:47:33.867Z,25.27
2019-03-24T11:50:16.507Z,24.17
2019-03-24T11:52:58.487Z,23.97
2019-03-24T11:55:40.585Z,23.07
2019-03-24T11:58:22.315Z,24.30
2019-03-24T12:01:04.199Z,22.83
2019-03-24T12:03:46.656Z,23.40
2019-03-24T12:06:15.167Z,22.13
2019-03-24T12:09:12.700Z,22.73
2019-03-24T12:11:54.660Z,23.80
2019-03-24T12:14:36.619Z,23.60
2019-03-24T12:17:18.368Z,25.20
2019-03-24T12:20:00.396Z,24.80
2019-03-24T12:22:42.312Z,24.87
2019-03-24T12:25:24.479Z,23.40
2019-03-24T12:28:06.259Z,23.07
2019-03-24T12:30:47.348Z,23.20
2019-03-24T12:33:29.187Z,22.97
2019-03-24T12:36:11.172Z,21.90
2019-03-24T12:38:53.282Z,22.63
2019-03-24T12:41:35.197Z,21.60
2019-03-24T12:44:17.010Z,22.30
2019-03-24T12:46:59.081Z,25.40
2019-03-24T12:49:40.877Z,21.80
2019-03-24T12:52:22.812Z,22.20
2019-03-24T12:55:04.996Z,22.03
2019-03-24T12:57:46.975Z,21.50
2019-03-24T13:00:28.888Z,21.20
2019-03-24T13:03:10.671Z,20.57
2019-03-24T13:05:52.526Z,20.80
2019-03-24T13:08:34.562Z,23.03
2019-03-24T13:11:16.576Z,21.67
2019-03-24T13:13:57.447Z,22.93
2019-03-24T13:16:41.891Z,21.00
2019-03-24T13:19:24.267Z,21.57
2019-03-24T13:22:06.312Z,21.20
2019-03-24T13:24:48.177Z,20.90
2019-03-24T13:27:30.254Z,20.73
2019-03-24T13:30:13.979Z,21.30
2019-03-24T13:32:56.025Z,21.67
2019-03-24T13:35:37.920Z,22.03
2019-03-24T13:38:19.968Z,21.60
2019-03-24T13:41:01.146Z,20.70
2019-03-24T13:43:43.296Z,23.03
2019-03-24T13:46:25.015Z,21.33
2019-03-24T13:49:06.856Z,20.50
2019-03-24T13:51:48.058Z,23.17
2019-03-24T13:54:30.009Z,22.20
2019-03-24T13:57:11.803Z,22.03
2019-03-24T13:59:53.660Z,24.87
2019-03-24T14:02:35.884Z,30.13
2019-03-24T14:05:18.744Z,25.30
2019-03-24T14:07:47.107Z,23.30
2019-03-24T14:10:29.510Z,23.13
2019-03-24T14:13:11.567Z,22.63
2019-03-24T14:15:53.520Z,22.83
2019-03-24T14:18:35.766Z,22.23
2019-03-24T14:21:17.448Z,21.63
2019-03-24T14:23:59.527Z,24.53
2019-03-24T14:26:41.741Z,23.50
2019-03-24T14:29:23.628Z,24.03
2019-03-24T14:32:05.785Z,25.93
2019-03-24T14:34:48.376Z,25.17
2019-03-24T14:37:30.296Z,27.57
2019-03-24T14:40:12.373Z,24.83
2019-03-24T14:42:54.479Z,26.00
2019-03-24T14:45:36.515Z,25.73
2019-03-24T14:48:18.469Z,25.33
2019-03-24T14:51:00.588Z,26.90
2019-03-24T14:53:42.261Z,25.20
2019-03-24T14:56:24.328Z,26.40
2019-03-24T14:59:06.406Z,24.70
2019-03-24T15:01:48.459Z,25.50
2019-03-24T15:04:30.196Z,24.63
2019-03-24T15:07:12.115Z,23.90
2019-03-24T15:09:54.291Z,25.07
2019-03-24T15:12:36.089Z,25.43
2019-03-24T15:15:17.820Z,24.23
2019-03-24T15:17:59.892Z,24.90
2019-03-24T15:20:41.690Z,26.00
2019-03-24T15:23:23.732Z,24.83
2019-03-24T15:26:05.631Z,25.30
2019-03-24T15:28:47.672Z,25.13
2019-03-24T15:31:29.751Z,24.90
2019-03-24T15:34:11.779Z,24.10
2019-03-24T15:36:53.747Z,26.13
2019-03-24T15:39:35.604Z,24.63
2019-03-24T15:42:17.648Z,25.43
2019-03-24T15:44:59.620Z,23.90
2019-03-24T15:47:41.477Z,23.10
2019-03-24T15:50:23.523Z,23.40
2019-03-24T15:53:05.415Z,25.50
2019-03-24T15:55:47.615Z,23.57
2019-03-24T15:58:31.665Z,24.70
2019-03-24T16:01:13.521Z,23.83
2019-03-24T16:03:55.784Z,23.60
2019-03-24T16:06:39.584Z,23.83
2019-03-24T16:09:21.457Z,24.70
2019-03-24T16:12:02.650Z,24.20
2019-03-24T16:14:43.629Z,25.27
2019-03-24T16:17:25.667Z,25.13
2019-03-24T16:20:07.799Z,23.20
2019-03-24T16:22:50.032Z,23.40
2019-03-24T16:25:31.931Z,23.83
2019-03-24T16:28:13.951Z,25.40
2019-03-24T16:30:56.003Z,23.13
2019-03-24T16:33:37.857Z,24.63
2019-03-24T16:36:19.643Z,23.70
2019-03-24T16:39:04.049Z,22.67
2019-03-24T16:41:45.511Z,24.23
2019-03-24T16:44:27.633Z,22.10
2019-03-24T16:47:09.241Z,22.40
2019-03-24T16:49:51.267Z,22.53
2019-03-24T16:52:33.435Z,22.93
2019-03-24T16:55:15.308Z,22.27
2019-03-24T16:57:57.243Z,23.30
2019-03-24T17:00:39.307Z,22.70
2019-03-24T17:03:22.300Z,23.50
2019-03-24T17:06:04.240Z,21.47
2019-03-24T17:08:46.178Z,22.00
2019-03-24T17:11:29.268Z,23.37
2019-03-24T17:14:11.383Z,23.17
2019-03-24T17:16:53.929Z,23.50
2019-03-24T17:19:35.971Z,20.97
2019-03-24T17:22:18.328Z,22.90
2019-03-24T17:25:00.403Z,22.50
2019-03-24T17:27:42.091Z,23.60
2019-03-24T17:30:24.220Z,22.30
2019-03-24T17:33:06.231Z,21.43
2019-03-24T17:35:48.336Z,21.33
2019-03-24T17:38:30.888Z,22.10
2019-03-24T17:41:15.353Z,22.03
2019-03-24T17:44:03.076Z,21.13
2019-03-24T17:46:41.704Z,28.23
2019-03-24T17:49:23.796Z,27.07
2019-03-24T17:52:05.698Z,35.20
2019-03-24T17:54:47.769Z,23.40
2019-03-24T17:57:29.803Z,22.30
2019-03-24T18:00:12.227Z,20.37
2019-03-24T18:02:53.756Z,20.67
2019-03-24T18:05:36.823Z,20.97
2019-03-24T18:08:18.747Z,21.83
2019-03-24T18:11:00.735Z,22.13
2019-03-24T18:13:42.739Z,22.00
2019-03-24T18:16:24.378Z,22.53
2019-03-24T18:19:06.327Z,23.23
2019-03-24T18:21:48.307Z,22.87
2019-03-24T18:24:30.225Z,22.77
2019-03-24T18:27:11.312Z,22.50
2019-03-24T18:29:53.289Z,21.10
2019-03-24T18:32:35.275Z,22.00
2019-03-24T18:35:17.356Z,22.80
2019-03-24T18:37:59.351Z,22.57
2019-03-24T18:40:41.356Z,22.03
2019-03-24T18:43:23.300Z,22.03
2019-03-24T18:46:05.468Z,25.30
2019-03-24T18:48:47.420Z,23.50
2019-03-24T18:51:28.500Z,23.30
2019-03-24T18:54:10.544Z,28.03
2019-03-24T18:56:54.575Z,24.17
2019-03-24T18:59:41.145Z,22.47
2019-03-24T19:02:23.410Z,20.90
2019-03-24T19:05:05.512Z,23.47
2019-03-24T19:07:46.685Z,23.10
2019-03-24T19:10:28.691Z,22.80
2019-03-24T19:13:12.668Z,23.10
2019-03-24T19:15:54.404Z,23.57
2019-03-24T19:18:36.341Z,22.57
2019-03-24T19:21:18.347Z,21.73
2019-03-24T19:24:00.464Z,22.07
2019-03-24T19:26:42.477Z,23.27
2019-03-24T19:29:24.260Z,23.63
2019-03-24T19:32:06.287Z,25.27
2019-03-24T19:34:48.321Z,23.50
2019-03-24T19:37:30.538Z,22.23
2019-03-24T19:40:13.140Z,22.43
2019-03-24T19:42:55.539Z,23.33
2019-03-24T19:45:37.902Z,22.33
2019-03-24T19:48:20.396Z,21.57
2019-03-24T19:51:02.977Z,23.00
2019-03-24T19:53:45.076Z,23.23
2019-03-24T19:56:26.241Z,24.20
2019-03-24T19:59:07.482Z,22.10
2019-03-24T20:01:49.348Z,22.60
2019-03-24T20:04:31.539Z,21.63
2019-03-24T20:07:13.485Z,24.20
2019-03-24T20:09:55.404Z,23.13
2019-03-24T20:12:37.524Z,23.47
2019-03-24T20:15:19.380Z,23.80
2019-03-24T20:18:01.423Z,21.13
2019-03-24T20:20:44.240Z,20.83
2019-03-24T20:23:27.476Z,21.17
2019-03-24T20:26:09.021Z,20.60
2019-03-24T20:28:51.092Z,20.60
2019-03-24T20:31:32.942Z,22.70
2019-03-24T20:34:14.733Z,24.20
2019-03-24T20:36:55.918Z,25.07
2019-03-24T20:39:37.577Z,24.27
2019-03-24T20:42:19.504Z,22.20
2019-03-24T20:45:01.490Z,25.60
2019-03-24T20:47:43.364Z,23.60
2019-03-24T20:50:25.597Z,24.20
2019-03-24T20:53:17.676Z,24.43
2019-03-24T20:55:51.307Z,28.30
2019-03-24T20:58:33.242Z,25.03
2019-03-24T21:01:15.138Z,24.87
2019-03-24T21:03:57.152Z,28.40
2019-03-24T21:06:39.240Z,27.10
2019-03-24T21:09:21.192Z,27.53
2019-03-24T21:12:03.102Z,27.80
2019-03-24T21:14:45.040Z,27.90
2019-03-24T21:17:26.907Z,28.73
2019-03-24T21:20:07.983Z,26.50
2019-03-24T21:22:49.833Z,21.80
2019-03-24T21:25:31.854Z,22.27
2019-03-24T21:28:13.843Z,29.17
2019-03-24T21:30:55.711Z,32.80
2019-03-24T21:33:37.565Z,32.33
2019-03-24T21:36:19.678Z,32.07
2019-03-24T21:39:02.301Z,31.50
2019-03-24T21:41:45.248Z,36.23
2019-03-24T21:44:27.075Z,35.57
2019-03-24T21:47:09.174Z,34.13
2019-03-24T21:49:50.953Z,37.10
2019-03-24T21:52:32.774Z,34.20
2019-03-24T21:55:14.722Z,38.27
2019-03-24T21:57:57.777Z,38.93
2019-03-24T22:00:39.861Z,39.73
2019-03-24T22:03:21.750Z,39.03
2019-03-24T22:06:03.648Z,42.67
2019-03-24T22:08:45.572Z,39.33
2019-03-24T22:11:27.663Z,41.53
2019-03-24T22:14:09.586Z,39.77
2019-03-24T22:16:51.572Z,39.73
2019-03-24T22:19:32.620Z,39.50
2019-03-24T22:22:14.522Z,39.13
2019-03-24T22:24:56.423Z,38.47
2019-03-24T22:27:38.335Z,38.00
2019-03-24T22:30:22.224Z,38.73
2019-03-24T22:33:04.154Z,38.50
2019-03-24T22:35:47.263Z,37.53
2019-03-24T22:38:28.959Z,36.90
2019-03-24T22:41:11.053Z,38.37
2019-03-24T22:43:52.132Z,39.80
2019-03-24T22:46:34.309Z,38.80
2019-03-24T22:49:16.256Z,38.40
2019-03-24T22:52:06.845Z,38.83
2019-03-24T22:54:42.079Z,39.30
2019-03-24T22:57:24.256Z,39.00
2019-03-24T23:00:10.256Z,36.87
2019-03-24T23:02:53.036Z,38.53
2019-03-24T23:05:35.021Z,39.23
2019-03-24T23:08:17.125Z,40.27
2019-03-24T23:11:01.003Z,36.77
2019-03-24T23:13:43.240Z,40.83
2019-03-24T23:16:25.041Z,40.10
2019-03-24T23:19:07.165Z,38.13
2019-03-24T23:21:49.516Z,39.93
2019-03-24T23:24:31.740Z,44.47
2019-03-24T23:27:13.760Z,36.90
2019-03-24T23:29:56.666Z,37.30
2019-03-24T23:32:38.608Z,36.77
2019-03-24T23:35:20.442Z,36.27
2019-03-24T23:38:02.256Z,33.47
2019-03-24T23:40:44.314Z,36.47
2019-03-24T23:43:26.375Z,35.93
2019-03-24T23:46:08.606Z,34.90
2019-03-24T23:48:51.119Z,32.10
2019-03-24T23:51:32.904Z,34.37
2019-03-24T23:54:26.197Z,34.00
2019-03-24T23:56:58.855Z,32.80
2019-03-24T23:59:40.444Z,33.43
